Time;durP1;ratioP1;P1;durP2;ratioP2;P2;SDS_P1;SDS_P2;PMS_P1;PMS_P2;Temp;Humidity;BMP_temperature;BMP_pressure;BME280_temperature;BME280_humidity;BME280_pressure;Samples;Min_cycle;Max_cycle;Signal;HPM_P1;HPM_P2
2022/06/03 00:00:53;;;;;;;;;1.67;1.67;;;;;;;;5066150;28;45331;-74
2022/06/03 00:03:24;;;;;;;;;2.00;2.00;;;;;;;;5070460;28;45359;-74
2022/06/03 00:06:05;;;;;;;;;1.00;1.00;;;;;;;;5060241;28;45474;-74
2022/06/03 00:08:49;;;;;;;;;1.33;1.33;;;;;;;;5060931;27;45263;-74
2022/06/03 00:11:24;;;;;;;;;2.00;2.00;;;;;;;;5075418;28;46283;-75
2022/06/03 00:14:14;;;;;;;;;2.33;1.00;;;;;;;;5073299;28;45504;-75
2022/06/03 00:16:52;;;;;;;;;1.00;1.00;;;;;;;;5062228;27;45483;-74
2022/06/03 00:19:34;;;;;;;;;3.00;2.00;;;;;;;;5069366;28;45361;-75
2022/06/03 00:21:59;;;;;;;;;1.00;1.00;;;;;;;;5070852;27;45449;-74
2022/06/03 00:24:36;;;;;;;;;1.00;1.00;;;;;;;;5070506;28;45611;-74
2022/06/03 00:27:07;;;;;;;;;2.00;1.00;;;;;;;;5061224;28;45446;-75
2022/06/03 00:29:35;;;;;;;;;1.00;1.00;;;;;;;;5059221;28;45395;-75
2022/06/03 00:32:16;;;;;;;;;1.00;1.00;;;;;;;;5076485;28;45343;-74
2022/06/03 00:34:50;;;;;;;;;0.25;0.25;;;;;;;;5072770;28;45334;-74
2022/06/03 00:37:34;;;;;;;;;1.50;1.50;;;;;;;;5062929;27;45284;-74
2022/06/03 00:40:17;;;;;;;;;1.50;1.50;;;;;;;;5062292;28;45627;-75
2022/06/03 00:42:43;;;;;;;;;2.00;2.00;;;;;;;;5062050;28;46429;-74
2022/06/03 00:45:20;;;;;;;;;1.00;1.00;;;;;;;;5061874;28;45397;-74
2022/06/03 00:48:02;;;;;;;;;0.00;0.00;;;;;;;;5059191;28;45426;-75
2022/06/03 00:50:46;;;;;;;;;1.00;1.00;;;;;;;;5058022;28;45401;-75
2022/06/03 00:53:17;;;;;;;;;1.00;1.00;;;;;;;;5074322;28;45473;-74
2022/06/03 00:55:56;;;;;;;;;1.00;1.00;;;;;;;;5061246;28;45324;-74
2022/06/03 00:58:39;;;;;;;;;1.00;1.00;;;;;;;;5070493;28;45543;-74
2022/06/03 01:01:10;;;;;;;;;1.33;1.33;;;;;;;;5072650;27;45488;-75
2022/06/03 01:03:45;;;;;;;;;1.00;1.00;;;;;;;;5067401;28;47178;-75
2022/06/03 01:06:49;;;;;;;;;2.50;1.50;;;;;;;;5071664;27;45347;-74
2022/06/03 01:09:20;;;;;;;;;1.00;1.00;;;;;;;;5044428;28;45604;-74
2022/06/03 01:12:01;;;;;;;;;1.75;1.75;;;;;;;;5065760;28;45498;-75
2022/06/03 01:14:45;;;;;;;;;1.00;1.00;;;;;;;;5037637;28;46083;-75
2022/06/03 01:17:10;;;;;;;;;2.00;2.00;;;;;;;;5054246;28;45432;-74
2022/06/03 01:19:45;;;;;;;;;1.00;1.00;;;;;;;;5058556;28;45445;-74
2022/06/03 01:22:10;;;;;;;;;3.00;2.00;;;;;;;;5059986;28;45558;-75
2022/06/03 01:24:35;;;;;;;;;2.00;2.00;;;;;;;;5060407;28;46235;-75
2022/06/03 01:27:10;;;;;;;;;3.00;1.00;;;;;;;;5053342;28;45439;-74
2022/06/03 01:29:54;;;;;;;;;1.00;1.00;;;;;;;;5053408;28;45481;-74
2022/06/03 01:32:31;;;;;;;;;3.00;1.25;;;;;;;;5069212;28;45869;-74
2022/06/03 01:35:08;;;;;;;;;1.00;1.00;;;;;;;;5050222;28;46087;-74
2022/06/03 01:37:39;;;;;;;;;1.00;1.00;;;;;;;;5052712;28;45459;-74
2022/06/03 01:40:13;;;;;;;;;1.00;1.00;;;;;;;;5063680;28;45418;-75
2022/06/03 01:42:38;;;;;;;;;1.00;1.00;;;;;;;;5067927;27;45612;-74
2022/06/03 01:45:10;;;;;;;;;1.00;1.00;;;;;;;;5065402;27;45891;-75
2022/06/03 01:47:56;;;;;;;;;1.00;1.00;;;;;;;;5072528;28;45504;-75
2022/06/03 01:50:36;;;;;;;;;1.00;1.00;;;;;;;;5072358;28;45508;-74
2022/06/03 01:53:24;;;;;;;;;1.00;1.00;;;;;;;;5072676;27;45448;-75
2022/06/03 01:56:08;;;;;;;;;1.50;1.50;;;;;;;;5076409;27;45571;-74
2022/06/03 01:58:54;;;;;;;;;1.00;1.00;;;;;;;;5071384;28;45287;-75
2022/06/03 02:01:22;;;;;;;;;2.00;2.00;;;;;;;;5066174;28;45232;-75
2022/06/03 02:04:07;;;;;;;;;1.00;1.00;;;;;;;;5069367;28;45290;-74
2022/06/03 02:06:50;;;;;;;;;1.00;1.00;;;;;;;;5069192;28;46229;-74
2022/06/03 02:09:31;;;;;;;;;0.33;0.00;;;;;;;;5069540;27;45488;-74
2022/06/03 02:12:10;;;;;;;;;1.00;1.00;;;;;;;;5057936;28;45480;-75
2022/06/03 02:14:44;;;;;;;;;1.00;1.00;;;;;;;;5058091;28;45584;-74
2022/06/03 02:17:12;;;;;;;;;1.00;1.00;;;;;;;;5073229;27;46495;-75
2022/06/03 02:19:40;;;;;;;;;1.33;1.33;;;;;;;;5059918;28;45495;-75
2022/06/03 02:22:08;;;;;;;;;2.00;2.00;;;;;;;;5060820;28;45367;-74
2022/06/03 02:25:00;;;;;;;;;1.00;1.00;;;;;;;;5063287;28;45378;-74
2022/06/03 02:27:32;;;;;;;;;3.00;1.75;;;;;;;;5068663;28;46219;-74
2022/06/03 02:30:30;;;;;;;;;1.00;1.00;;;;;;;;5068234;28;45331;-74
2022/06/03 02:33:13;;;;;;;;;0.00;0.00;;;;;;;;5060622;27;45394;-74
2022/06/03 02:35:52;;;;;;;;;1.00;1.00;;;;;;;;5057945;28;45611;-74
2022/06/03 02:38:36;;;;;;;;;1.00;1.00;;;;;;;;5072505;28;46688;-75
2022/06/03 02:41:12;;;;;;;;;3.00;2.00;;;;;;;;5081957;27;45247;-74
2022/06/03 02:43:40;;;;;;;;;1.00;1.00;;;;;;;;5060845;27;45410;-75
2022/06/03 02:46:06;;;;;;;;;1.00;1.00;;;;;;;;5066932;27;45464;-74
2022/06/03 02:48:53;;;;;;;;;2.00;2.00;;;;;;;;5074651;27;46482;-75
2022/06/03 02:51:20;;;;;;;;;2.00;2.00;;;;;;;;5063055;28;45456;-74
2022/06/03 02:53:45;;;;;;;;;1.00;1.00;;;;;;;;5061197;28;45259;-74
2022/06/03 02:56:23;;;;;;;;;2.25;2.25;;;;;;;;5075783;28;45350;-74
2022/06/03 02:59:07;;;;;;;;;3.00;1.00;;;;;;;;5062976;28;47126;-73
2022/06/03 03:01:51;;;;;;;;;2.00;2.00;;;;;;;;5084843;27;45515;-74
2022/06/03 03:04:22;;;;;;;;;2.00;2.00;;;;;;;;5072762;27;45610;-75
2022/06/03 03:06:57;;;;;;;;;1.00;1.00;;;;;;;;5072308;28;45315;-74
2022/06/03 03:09:35;;;;;;;;;2.00;2.00;;;;;;;;5070837;28;46334;-74
2022/06/03 03:12:19;;;;;;;;;1.67;1.67;;;;;;;;5060679;27;45260;-74
2022/06/03 03:14:44;;;;;;;;;2.00;2.00;;;;;;;;5061550;28;45692;-74
2022/06/03 03:17:12;;;;;;;;;2.00;2.00;;;;;;;;5077670;27;45311;-73
2022/06/03 03:19:52;;;;;;;;;1.25;0.75;;;;;;;;5062839;28;46352;-74
2022/06/03 03:22:24;;;;;;;;;2.00;2.00;;;;;;;;5063045;28;45326;-75
2022/06/03 03:24:49;;;;;;;;;1.75;1.75;;;;;;;;5067455;28;45707;-74
2022/06/03 03:27:15;;;;;;;;;1.00;1.00;;;;;;;;5072710;28;46127;-74
2022/06/03 03:29:44;;;;;;;;;3.00;1.75;;;;;;;;5060086;28;46192;-74
2022/06/03 03:32:28;;;;;;;;;1.00;1.00;;;;;;;;5074517;28;45367;-74
2022/06/03 03:35:02;;;;;;;;;2.00;2.00;;;;;;;;5074534;28;45492;-74
2022/06/03 03:37:43;;;;;;;;;1.00;1.00;;;;;;;;5072653;28;45406;-74
2022/06/03 03:40:11;;;;;;;;;1.25;1.25;;;;;;;;5064479;28;45496;-74
2022/06/03 03:42:39;;;;;;;;;1.25;1.25;;;;;;;;5065018;28;45422;-74
2022/06/03 03:45:16;;;;;;;;;1.00;1.00;;;;;;;;5081329;27;45408;-74
2022/06/03 03:47:54;;;;;;;;;2.00;2.00;;;;;;;;5073999;27;45540;-74
2022/06/03 03:50:32;;;;;;;;;1.00;1.00;;;;;;;;5076697;27;45494;-75
2022/06/03 03:53:08;;;;;;;;;1.33;1.00;;;;;;;;5074273;28;45399;-74
2022/06/03 03:55:46;;;;;;;;;2.00;2.00;;;;;;;;5077751;28;45382;-74
2022/06/03 03:58:35;;;;;;;;;2.50;2.50;;;;;;;;5075411;28;45408;-74
2022/06/03 04:01:03;;;;;;;;;2.25;2.25;;;;;;;;5048380;28;46361;-74
2022/06/03 04:03:30;;;;;;;;;2.00;2.00;;;;;;;;5056172;28;45628;-73
2022/06/03 04:05:58;;;;;;;;;2.50;2.00;;;;;;;;5054214;28;45432;-72
2022/06/03 04:08:34;;;;;;;;;2.00;2.00;;;;;;;;5051983;28;45309;-74
2022/06/03 04:11:07;;;;;;;;;2.25;1.25;;;;;;;;5051150;28;47081;-75
2022/06/03 04:13:33;;;;;;;;;1.25;1.25;;;;;;;;5054816;28;45451;-75
2022/06/03 04:16:10;;;;;;;;;3.60;2.00;;;;;;;;5061944;28;45535;-74
2022/06/03 04:18:41;;;;;;;;;4.00;2.00;;;;;;;;5060634;28;45531;-74
2022/06/03 04:21:18;;;;;;;;;0.50;0.50;;;;;;;;5061048;28;47344;-75
2022/06/03 04:24:02;;;;;;;;;1.00;1.00;;;;;;;;5053621;28;45524;-74
2022/06/03 04:26:30;;;;;;;;;1.25;1.25;;;;;;;;5044000;28;45337;-74
2022/06/03 04:29:07;;;;;;;;;2.50;2.50;;;;;;;;5055116;28;45467;-74
2022/06/03 04:31:35;;;;;;;;;2.00;2.00;;;;;;;;5062444;28;48387;-74
2022/06/03 04:34:01;;;;;;;;;1.50;1.00;;;;;;;;5056686;28;45568;-74
2022/06/03 04:36:35;;;;;;;;;2.00;2.00;;;;;;;;5053896;28;45503;-73
2022/06/03 04:39:19;;;;;;;;;2.00;2.00;;;;;;;;5071868;28;45755;-74
2022/06/03 04:41:45;;;;;;;;;2.00;2.00;;;;;;;;5071443;27;45387;-73
2022/06/03 04:44:19;;;;;;;;;2.00;2.00;;;;;;;;5073868;28;45302;-73
2022/06/03 04:47:03;;;;;;;;;2.00;2.00;;;;;;;;5060575;28;45516;-74
2022/06/03 04:49:51;;;;;;;;;3.00;2.00;;;;;;;;5060850;27;45425;-74
2022/06/03 04:52:17;;;;;;;;;1.75;1.75;;;;;;;;5055786;28;46251;-75
2022/06/03 04:55:01;;;;;;;;;2.00;2.00;;;;;;;;5060753;28;45444;-74
2022/06/03 04:57:32;;;;;;;;;1.25;1.25;;;;;;;;5061913;28;45406;-74
2022/06/03 05:00:16;;;;;;;;;3.00;1.50;;;;;;;;5061637;28;45516;-75
2022/06/03 05:03:00;;;;;;;;;2.00;2.00;;;;;;;;5059196;27;47189;-72
2022/06/03 05:05:43;;;;;;;;;2.50;2.50;;;;;;;;5058832;28;45409;-74
2022/06/03 05:08:23;;;;;;;;;4.00;2.25;;;;;;;;5059743;27;45341;-75
2022/06/03 05:10:48;;;;;;;;;2.00;2.00;;;;;;;;5060839;28;45466;-74
2022/06/03 05:13:35;;;;;;;;;3.00;2.00;;;;;;;;5061790;28;46023;-74
2022/06/03 05:16:18;;;;;;;;;2.00;2.00;;;;;;;;5074618;27;45511;-75
2022/06/03 05:18:54;;;;;;;;;2.00;2.00;;;;;;;;5076772;27;45494;-75
2022/06/03 05:21:48;;;;;;;;;2.00;2.00;;;;;;;;5075489;28;45428;-75
2022/06/03 05:24:32;;;;;;;;;2.00;2.00;;;;;;;;5066506;27;46298;-74
2022/06/03 05:27:01;;;;;;;;;2.00;2.00;;;;;;;;5078741;27;45442;-74
2022/06/03 05:29:26;;;;;;;;;1.00;1.00;;;;;;;;5058743;28;45249;-74
2022/06/03 05:31:51;;;;;;;;;2.25;2.00;;;;;;;;5072307;28;45367;-74
2022/06/03 05:34:35;;;;;;;;;2.80;2.00;;;;;;;;5061012;28;46273;-75
2022/06/03 05:37:13;;;;;;;;;1.50;1.50;;;;;;;;5061313;28;45339;-74
2022/06/03 05:39:54;;;;;;;;;2.00;2.00;;;;;;;;5060649;28;45286;-74
2022/06/03 05:42:27;;;;;;;;;3.00;3.00;;;;;;;;5060930;28;46752;-75
2022/06/03 05:44:52;;;;;;;;;2.50;2.50;;;;;;;;5070365;27;47004;-74
2022/06/03 05:47:22;;;;;;;;;1.50;1.50;;;;;;;;5075384;27;45558;-74
2022/06/03 05:49:50;;;;;;;;;1.75;1.75;;;;;;;;5079184;27;45274;-74
2022/06/03 05:52:34;;;;;;;;;2.00;2.00;;;;;;;;5061906;27;45471;-75
2022/06/03 05:55:17;;;;;;;;;1.75;1.75;;;;;;;;5066255;28;46271;-74
2022/06/03 05:58:02;;;;;;;;;2.00;2.00;;;;;;;;5066146;27;45651;-75
2022/06/03 06:00:46;;;;;;;;;2.00;2.00;;;;;;;;5066204;27;45283;-74
2022/06/03 06:03:14;;;;;;;;;1.25;1.25;;;;;;;;5084382;27;48389;-75
2022/06/03 06:05:51;;;;;;;;;2.75;2.75;;;;;;;;5074273;27;46218;-75
2022/06/03 06:08:29;;;;;;;;;2.00;2.00;;;;;;;;5074607;27;45311;-75
2022/06/03 06:10:54;;;;;;;;;2.75;2.75;;;;;;;;5056722;28;45493;-75
2022/06/03 06:13:26;;;;;;;;;3.00;2.00;;;;;;;;5060747;28;45537;-74
2022/06/03 06:15:54;;;;;;;;;3.25;2.00;;;;;;;;5067056;27;46045;-74
2022/06/03 06:18:25;;;;;;;;;2.00;2.00;;;;;;;;5060655;28;45448;-74
2022/06/03 06:21:08;;;;;;;;;2.00;2.00;;;;;;;;5070401;27;45555;-74
2022/06/03 06:23:50;;;;;;;;;3.75;2.00;;;;;;;;5056046;28;45466;-74
2022/06/03 06:26:15;;;;;;;;;2.00;2.00;;;;;;;;5057097;27;46106;-74
2022/06/03 06:29:00;;;;;;;;;2.25;2.25;;;;;;;;5071670;28;45382;-74
2022/06/03 06:31:44;;;;;;;;;2.00;2.00;;;;;;;;5061045;28;45221;-74
2022/06/03 06:34:09;;;;;;;;;3.25;3.25;;;;;;;;5061376;27;45464;-74
2022/06/03 06:36:50;;;;;;;;;3.00;3.00;;;;;;;;5066698;27;46313;-74
2022/06/03 06:39:27;;;;;;;;;2.00;2.00;;;;;;;;5060534;28;45403;-74
2022/06/03 06:42:22;;;;;;;;;2.25;2.25;;;;;;;;5059571;28;45796;-74
2022/06/03 06:44:55;;;;;;;;;3.00;3.00;;;;;;;;5053875;28;45488;-74
2022/06/03 06:47:30;;;;;;;;;2.75;2.75;;;;;;;;5056836;28;45496;-74
2022/06/03 06:49:55;;;;;;;;;2.00;2.00;;;;;;;;5071793;28;45424;-74
2022/06/03 06:52:30;;;;;;;;;2.00;2.00;;;;;;;;5060143;28;45313;-75
2022/06/03 06:55:01;;;;;;;;;3.00;2.25;;;;;;;;5065052;28;45524;-74
2022/06/03 06:57:32;;;;;;;;;2.00;2.00;;;;;;;;5067640;28;46290;-74
2022/06/03 07:00:18;;;;;;;;;2.00;2.00;;;;;;;;5057319;28;45668;-74
2022/06/03 07:02:50;;;;;;;;;2.00;2.00;;;;;;;;5065620;27;45312;-74
2022/06/03 07:05:23;;;;;;;;;3.00;3.00;;;;;;;;5076995;27;45327;-74
2022/06/03 07:08:00;;;;;;;;;1.50;1.50;;;;;;;;5059477;28;45883;-74
2022/06/03 07:10:27;;;;;;;;;2.50;2.50;;;;;;;;5060304;27;45505;-74
2022/06/03 07:12:56;;;;;;;;;2.50;2.50;;;;;;;;5063601;27;45484;-74
2022/06/03 07:15:25;;;;;;;;;2.00;2.00;;;;;;;;5060041;27;45325;-75
2022/06/03 07:20:53;;;;;;;;;1.75;1.75;;;;;;;;5057733;28;45358;-73
2022/06/03 07:23:24;;;;;;;;;2.00;2.00;;;;;;;;5056391;28;45496;-75
2022/06/03 07:26:01;;;;;;;;;2.00;2.00;;;;;;;;5074779;27;45425;-74
2022/06/03 07:28:27;;;;;;;;;2.00;2.00;;;;;;;;5072458;28;45302;-74
2022/06/03 07:30:58;;;;;;;;;2.00;2.00;;;;;;;;5067516;27;45517;-74
2022/06/03 07:33:30;;;;;;;;;4.00;4.00;;;;;;;;5063990;28;45506;-73
2022/06/03 07:35:58;;;;;;;;;2.00;2.00;;;;;;;;5058063;28;45567;-74
2022/06/03 07:38:26;;;;;;;;;2.00;2.00;;;;;;;;5085753;27;47379;-74
2022/06/03 07:41:03;;;;;;;;;2.25;2.25;;;;;;;;5062619;28;45472;-72
2022/06/03 07:43:37;;;;;;;;;2.00;2.00;;;;;;;;5063299;28;45556;-74
2022/06/03 07:46:14;;;;;;;;;3.00;3.00;;;;;;;;5063134;27;45402;-74
2022/06/03 07:48:39;;;;;;;;;2.75;2.75;;;;;;;;5061580;28;47149;-74
2022/06/03 07:51:20;;;;;;;;;2.00;2.00;;;;;;;;5059455;28;45289;-74
2022/06/03 07:53:52;;;;;;;;;1.75;1.75;;;;;;;;5084869;27;45215;-74
2022/06/03 07:56:21;;;;;;;;;4.75;3.50;;;;;;;;5059542;28;45551;-74
2022/06/03 07:58:49;;;;;;;;;3.00;3.00;;;;;;;;5062219;28;45344;-74
2022/06/03 08:01:22;;;;;;;;;2.00;2.00;;;;;;;;5063176;28;45537;-74
2022/06/03 08:03:47;;;;;;;;;2.75;2.75;;;;;;;;5067659;27;45422;-74
2022/06/03 08:06:13;;;;;;;;;3.00;2.00;;;;;;;;5077788;27;45438;-74
2022/06/03 08:11:30;;;;;;;;;3.00;3.00;;;;;;;;5059071;28;45510;-74
2022/06/03 08:13:56;;;;;;;;;3.00;2.50;;;;;;;;5073972;28;45480;-75
2022/06/03 08:16:51;;;;;;;;;3.25;3.25;;;;;;;;5080386;27;45557;-75
2022/06/03 08:19:17;;;;;;;;;3.00;2.50;;;;;;;;5059125;27;46326;-74
2022/06/03 08:21:43;;;;;;;;;4.00;4.00;;;;;;;;5070497;27;45445;-75
2022/06/03 08:24:10;;;;;;;;;2.75;2.75;;;;;;;;5062831;27;45565;-74
2022/06/03 08:26:36;;;;;;;;;2.00;2.00;;;;;;;;5059589;28;45513;-74
2022/06/03 08:29:13;;;;;;;;;2.75;2.75;;;;;;;;5060356;28;47190;-75
2022/06/03 08:31:39;;;;;;;;;3.25;3.00;;;;;;;;5083510;27;45300;-74
2022/06/03 08:34:06;;;;;;;;;2.50;2.50;;;;;;;;5066666;27;45315;-74
2022/06/03 08:36:35;;;;;;;;;2.25;2.25;;;;;;;;5061902;28;45485;-74
2022/06/03 08:39:06;;;;;;;;;3.00;3.00;;;;;;;;5080451;27;46216;-74
2022/06/03 08:41:45;;;;;;;;;3.75;3.75;;;;;;;;5072905;28;45525;-73
2022/06/03 08:44:24;;;;;;;;;2.00;2.00;;;;;;;;5059872;28;45370;-74
2022/06/03 08:47:01;;;;;;;;;3.00;2.00;;;;;;;;5060698;28;45502;-74
2022/06/03 08:49:29;;;;;;;;;4.50;3.50;;;;;;;;5062110;28;46182;-74
2022/06/03 08:52:03;;;;;;;;;3.00;3.00;;;;;;;;5072546;27;45331;-73
2022/06/03 08:54:47;;;;;;;;;2.75;2.00;;;;;;;;5076963;27;45490;-74
2022/06/03 08:57:17;;;;;;;;;3.00;3.00;;;;;;;;5062066;28;45428;-72
2022/06/03 08:59:47;;;;;;;;;2.00;2.00;;;;;;;;5059009;28;45699;-74
2022/06/03 09:02:19;;;;;;;;;4.00;4.00;;;;;;;;5089857;27;45689;-75
2022/06/03 09:04:51;;;;;;;;;3.00;2.00;;;;;;;;5075684;27;45323;-74
2022/06/03 09:07:23;;;;;;;;;3.75;3.75;;;;;;;;5062806;27;46142;-74
2022/06/03 09:10:03;;;;;;;;;4.50;4.00;;;;;;;;5066118;28;46149;-74
2022/06/03 09:12:29;;;;;;;;;2.25;2.25;;;;;;;;5072457;27;45611;-74
2022/06/03 09:14:56;;;;;;;;;2.25;2.25;;;;;;;;5071111;28;45330;-74
2022/06/03 09:17:21;;;;;;;;;2.00;2.00;;;;;;;;5087001;27;45338;-75
2022/06/03 09:19:47;;;;;;;;;3.00;3.00;;;;;;;;5074236;27;45429;-74
2022/06/03 09:22:15;;;;;;;;;2.00;2.00;;;;;;;;5062446;27;45327;-74
2022/06/03 09:24:41;;;;;;;;;3.00;2.00;;;;;;;;5063995;28;45435;-74
2022/06/03 09:27:08;;;;;;;;;3.00;3.00;;;;;;;;5071948;28;45448;-74
2022/06/03 09:29:33;;;;;;;;;1.75;1.75;;;;;;;;5057572;28;45939;-72
2022/06/03 09:32:01;;;;;;;;;3.00;3.00;;;;;;;;5076010;28;45323;-74
2022/06/03 09:34:38;;;;;;;;;3.00;3.00;;;;;;;;5069326;28;45323;-74
2022/06/03 09:37:04;;;;;;;;;4.00;3.00;;;;;;;;5064329;28;45261;-74
2022/06/03 09:39:31;;;;;;;;;2.75;2.75;;;;;;;;5062252;27;45371;-74
2022/06/03 09:41:58;;;;;;;;;4.00;4.00;;;;;;;;5073328;27;45326;-74
2022/06/03 09:44:24;;;;;;;;;4.00;4.00;;;;;;;;5057581;28;45324;-75
2022/06/03 09:46:55;;;;;;;;;4.00;3.00;;;;;;;;5071807;28;45307;-74
2022/06/03 09:49:20;;;;;;;;;1.00;1.00;;;;;;;;5069125;27;47163;-74
2022/06/03 09:52:00;;;;;;;;;3.00;3.00;;;;;;;;5067940;27;45511;-74
2022/06/03 09:54:25;;;;;;;;;4.00;3.00;;;;;;;;5068317;28;45490;-74
2022/06/03 09:56:52;;;;;;;;;3.00;3.00;;;;;;;;5071033;28;45232;-74
2022/06/03 09:59:22;;;;;;;;;2.00;2.00;;;;;;;;5071396;28;48458;-75
2022/06/03 10:01:48;;;;;;;;;6.75;4.25;;;;;;;;5071798;28;45320;-74
2022/06/03 10:04:15;;;;;;;;;3.75;3.75;;;;;;;;5059894;27;45424;-74
2022/06/03 10:06:45;;;;;;;;;3.00;3.00;;;;;;;;5063318;28;45413;-74
2022/06/03 10:14:39;;;;;;;;;2.50;2.50;;;;;;;;5059098;28;45298;-74
2022/06/03 10:17:05;;;;;;;;;3.00;3.00;;;;;;;;5087035;27;45432;-75
2022/06/03 10:19:30;;;;;;;;;2.75;2.75;;;;;;;;5073762;27;47166;-74
2022/06/03 10:21:56;;;;;;;;;4.25;3.00;;;;;;;;5064535;27;45427;-75
2022/06/03 10:24:22;;;;;;;;;3.00;3.00;;;;;;;;5060383;28;45282;-74
2022/06/03 10:26:51;;;;;;;;;3.00;3.00;;;;;;;;5073280;27;45460;-74
2022/06/03 10:29:18;;;;;;;;;3.00;3.00;;;;;;;;5057063;27;45919;-74
2022/06/03 10:31:47;;;;;;;;;5.00;5.00;;;;;;;;5059987;28;45327;-74
2022/06/03 10:34:14;;;;;;;;;3.00;3.00;;;;;;;;5060666;28;45480;-74
2022/06/03 10:36:41;;;;;;;;;4.25;4.25;;;;;;;;5061847;28;45392;-74
2022/06/03 10:39:09;;;;;;;;;3.50;3.50;;;;;;;;5068788;28;45586;-74
2022/06/03 10:41:40;;;;;;;;;4.00;4.00;;;;;;;;5072744;28;45289;-74
2022/06/03 10:44:36;;;;;;;;;4.00;4.00;;;;;;;;5071380;28;45286;-75
2022/06/03 10:47:06;;;;;;;;;5.00;4.00;;;;;;;;5070388;27;45535;-73
2022/06/03 10:49:33;;;;;;;;;3.00;3.00;;;;;;;;5069740;28;46216;-73
2022/06/03 11:02:57;;;;;;;;;2.75;2.75;;;;;;;;5073125;28;45292;-74
2022/06/03 11:05:28;;;;;;;;;3.50;3.50;;;;;;;;5073750;27;45481;-74
2022/06/03 11:07:58;;;;;;;;;3.25;3.25;;;;;;;;5071078;28;45553;-75
2022/06/03 11:10:26;;;;;;;;;2.75;2.75;;;;;;;;5065026;27;46273;-75
2022/06/03 11:12:57;;;;;;;;;2.75;2.75;;;;;;;;5075693;27;45692;-74
2022/06/03 11:15:26;;;;;;;;;4.50;4.00;;;;;;;;5075563;27;45315;-74
2022/06/03 11:17:51;;;;;;;;;4.00;4.00;;;;;;;;5086137;27;45510;-75
2022/06/03 11:20:18;;;;;;;;;3.00;3.00;;;;;;;;5074960;28;45329;-75
2022/06/03 11:22:45;;;;;;;;;3.00;3.00;;;;;;;;5074325;27;45448;-74
2022/06/03 11:25:20;;;;;;;;;3.25;3.25;;;;;;;;5069708;27;45415;-74
2022/06/03 11:27:48;;;;;;;;;3.00;2.50;;;;;;;;5065446;27;45521;-74
2022/06/03 11:30:17;;;;;;;;;5.50;4.00;;;;;;;;5061705;27;46313;-74
2022/06/03 11:32:45;;;;;;;;;4.00;4.00;;;;;;;;5086734;27;45497;-75
2022/06/03 11:35:15;;;;;;;;;4.00;4.00;;;;;;;;5060653;28;45463;-74
2022/06/03 11:37:41;;;;;;;;;3.75;3.75;;;;;;;;5062612;28;45437;-74
2022/06/03 11:40:10;;;;;;;;;5.50;4.00;;;;;;;;5068565;27;46936;-74
2022/06/03 11:42:35;;;;;;;;;7.00;4.00;;;;;;;;5078018;27;45529;-75
2022/06/03 11:45:00;;;;;;;;;3.75;3.75;;;;;;;;5071868;28;45410;-75
2022/06/03 11:47:33;;;;;;;;;2.00;2.00;;;;;;;;5076156;27;45364;-74
2022/06/03 11:49:58;;;;;;;;;4.50;4.50;;;;;;;;5078164;27;45841;-75
2022/06/03 11:52:23;;;;;;;;;3.75;3.75;;;;;;;;5062664;28;45476;-75
2022/06/03 11:54:51;;;;;;;;;3.25;3.25;;;;;;;;5062776;27;45276;-74
2022/06/03 11:57:16;;;;;;;;;5.00;5.00;;;;;;;;5061860;28;45536;-74
2022/06/03 11:59:50;;;;;;;;;4.00;4.00;;;;;;;;5074201;28;46093;-74
2022/06/03 12:02:24;;;;;;;;;3.75;3.50;;;;;;;;5059545;27;45580;-74
2022/06/03 12:04:53;;;;;;;;;6.00;6.00;;;;;;;;5073663;28;45408;-75
2022/06/03 12:07:37;;;;;;;;;3.75;3.75;;;;;;;;5071133;28;45469;-74
2022/06/03 12:10:21;;;;;;;;;6.00;4.75;;;;;;;;5075854;27;45768;-74
2022/06/03 12:15:31;;;;;;;;;4.00;4.00;;;;;;;;5070422;27;45337;-75
2022/06/03 12:17:58;;;;;;;;;6.25;5.25;;;;;;;;5062394;27;45469;-75
2022/06/03 12:20:29;;;;;;;;;3.50;3.50;;;;;;;;5069180;27;45758;-74
2022/06/03 12:22:54;;;;;;;;;4.50;4.50;;;;;;;;5072595;28;45428;-75
2022/06/03 12:25:32;;;;;;;;;4.75;4.75;;;;;;;;5061904;28;45398;-74
2022/06/03 12:27:58;;;;;;;;;5.00;4.50;;;;;;;;5070389;28;45465;-74
2022/06/03 12:30:29;;;;;;;;;4.25;4.25;;;;;;;;5071316;27;45501;-75
2022/06/03 12:32:59;;;;;;;;;4.00;4.00;;;;;;;;5059469;28;45275;-75
2022/06/03 12:35:42;;;;;;;;;3.00;3.00;;;;;;;;5075921;27;45506;-74
2022/06/03 12:38:20;;;;;;;;;4.25;4.00;;;;;;;;5087967;27;45384;-74
2022/06/03 12:40:53;;;;;;;;;3.00;2.75;;;;;;;;5077443;27;46207;-74
2022/06/03 12:43:37;;;;;;;;;6.00;5.00;;;;;;;;5064864;27;45304;-75
2022/06/03 12:46:02;;;;;;;;;3.75;3.75;;;;;;;;5062025;28;45372;-75
2022/06/03 12:48:35;;;;;;;;;5.00;5.00;;;;;;;;5062723;28;45384;-75
2022/06/03 12:51:19;;;;;;;;;4.00;4.00;;;;;;;;5073667;28;46984;-74
2022/06/03 12:53:45;;;;;;;;;2.00;2.00;;;;;;;;5059326;28;45448;-74
2022/06/03 12:56:18;;;;;;;;;4.00;4.00;;;;;;;;5073358;27;45364;-74
2022/06/03 12:58:47;;;;;;;;;4.25;4.25;;;;;;;;5061411;28;45311;-75
2022/06/03 13:01:27;;;;;;;;;3.75;3.75;;;;;;;;5081891;27;46132;-74
2022/06/03 13:03:52;;;;;;;;;5.00;4.00;;;;;;;;5071988;27;45328;-74
2022/06/03 13:06:21;;;;;;;;;5.00;5.00;;;;;;;;5080944;27;45315;-74
2022/06/03 13:11:32;;;;;;;;;5.25;4.25;;;;;;;;5058389;28;45375;-73
2022/06/03 13:13:57;;;;;;;;;3.50;3.50;;;;;;;;5072949;28;45358;-75
2022/06/03 13:16:25;;;;;;;;;6.25;5.00;;;;;;;;5076839;27;45432;-75
2022/06/03 13:18:59;;;;;;;;;3.75;3.75;;;;;;;;5079818;27;45224;-75
2022/06/03 13:21:25;;;;;;;;;3.00;3.00;;;;;;;;5069655;28;46360;-74
2022/06/03 13:23:51;;;;;;;;;4.75;4.00;;;;;;;;5072312;28;45534;-74
2022/06/03 13:26:22;;;;;;;;;6.00;5.00;;;;;;;;5078698;27;45275;-75
2022/06/03 13:28:48;;;;;;;;;7.00;5.00;;;;;;;;5072240;27;45493;-75
2022/06/03 13:31:13;;;;;;;;;3.50;3.50;;;;;;;;5069504;28;46454;-75
2022/06/03 13:33:57;;;;;;;;;4.00;4.00;;;;;;;;5073501;27;45348;-74
2022/06/03 13:36:30;;;;;;;;;5.50;5.50;;;;;;;;5065713;27;45459;-74
2022/06/03 13:38:56;;;;;;;;;3.00;3.00;;;;;;;;5072658;28;45536;-74
2022/06/03 13:44:48;;;;;;;;;6.25;4.75;;;;;;;;5073278;28;45228;-74
2022/06/03 13:47:20;;;;;;;;;3.25;3.25;;;;;;;;5070526;27;45399;-75
2022/06/03 13:49:49;;;;;;;;;6.00;6.00;;;;;;;;5084425;27;45416;-75
2022/06/03 13:52:20;;;;;;;;;7.25;6.00;;;;;;;;5063152;27;46223;-75
2022/06/03 13:54:48;;;;;;;;;6.25;5.00;;;;;;;;5063791;28;45329;-72
2022/06/03 13:57:22;;;;;;;;;5.50;5.00;;;;;;;;5069474;28;45426;-74
2022/06/03 13:59:48;;;;;;;;;5.00;5.00;;;;;;;;5071543;28;45509;-74
2022/06/03 14:02:37;;;;;;;;;6.00;6.00;;;;;;;;5072003;28;46232;-74
2022/06/03 14:05:14;;;;;;;;;4.50;4.50;;;;;;;;5063749;28;45413;-74
2022/06/03 14:08:01;;;;;;;;;4.25;3.75;;;;;;;;5071183;28;45433;-75
2022/06/03 14:10:33;;;;;;;;;4.00;3.75;;;;;;;;5070011;28;45388;-75
2022/06/03 14:13:01;;;;;;;;;4.50;4.50;;;;;;;;5061230;27;47276;-74
2022/06/03 14:15:54;;;;;;;;;4.00;4.00;;;;;;;;5060893;27;45422;-75
2022/06/03 14:18:38;;;;;;;;;5.00;4.00;;;;;;;;5061532;28;45633;-75
2022/06/03 14:21:07;;;;;;;;;4.50;4.50;;;;;;;;5060406;28;45384;-74
2022/06/03 14:23:36;;;;;;;;;5.75;5.75;;;;;;;;5056408;28;46593;-75
2022/06/03 14:26:04;;;;;;;;;5.75;4.75;;;;;;;;5062374;27;45437;-75
2022/06/03 14:28:30;;;;;;;;;4.25;3.50;;;;;;;;5073255;28;45472;-74
2022/06/03 14:31:00;;;;;;;;;6.00;4.75;;;;;;;;5072756;27;45426;-75
2022/06/03 14:33:27;;;;;;;;;6.00;6.00;;;;;;;;5079714;27;47379;-74
2022/06/03 14:35:57;;;;;;;;;4.25;4.25;;;;;;;;5058817;28;45402;-74
2022/06/03 14:38:22;;;;;;;;;3.75;3.75;;;;;;;;5057223;28;45288;-72
2022/06/03 14:40:49;;;;;;;;;7.75;6.50;;;;;;;;5083073;27;45340;-74
2022/06/03 14:43:16;;;;;;;;;5.00;5.00;;;;;;;;5078123;27;46486;-74
2022/06/03 14:45:45;;;;;;;;;6.75;5.25;;;;;;;;5077436;27;45314;-74
2022/06/03 14:48:14;;;;;;;;;6.25;6.00;;;;;;;;5072398;28;45523;-74
2022/06/03 14:50:41;;;;;;;;;5.00;5.00;;;;;;;;5084068;27;45436;-74
2022/06/03 14:53:06;;;;;;;;;4.00;4.00;;;;;;;;5080416;27;46136;-74
2022/06/03 14:55:37;;;;;;;;;6.00;6.00;;;;;;;;5063993;28;45407;-74
2022/06/03 14:58:24;;;;;;;;;5.25;5.25;;;;;;;;5064382;28;45425;-74
2022/06/03 15:00:49;;;;;;;;;4.00;4.00;;;;;;;;5062677;28;45426;-74
2022/06/03 15:03:31;;;;;;;;;4.00;4.00;;;;;;;;5063429;28;46984;-74
2022/06/03 15:05:57;;;;;;;;;6.00;6.00;;;;;;;;5060673;28;45363;-74
2022/06/03 15:08:41;;;;;;;;;4.50;4.50;;;;;;;;5076165;28;45347;-74
2022/06/03 15:11:06;;;;;;;;;7.00;7.00;;;;;;;;5087855;27;45456;-75
2022/06/03 15:13:32;;;;;;;;;6.00;5.25;;;;;;;;5083525;27;46168;-74
2022/06/03 15:15:57;;;;;;;;;6.75;5.00;;;;;;;;5077271;27;45481;-74
2022/06/03 15:18:26;;;;;;;;;6.00;6.00;;;;;;;;5071916;28;45394;-75
2022/06/03 15:21:14;;;;;;;;;5.00;5.00;;;;;;;;5060595;28;45573;-75
2022/06/03 15:23:40;;;;;;;;;4.75;4.25;;;;;;;;5060672;28;46091;-74
2022/06/03 15:26:09;;;;;;;;;8.25;6.75;;;;;;;;5088523;27;45444;-75
2022/06/03 15:28:34;;;;;;;;;5.00;4.75;;;;;;;;5073540;28;45355;-75
2022/06/03 15:31:01;;;;;;;;;6.25;6.25;;;;;;;;5074353;27;46076;-74
2022/06/03 15:33:37;;;;;;;;;7.00;6.00;;;;;;;;5071301;27;45408;-74
2022/06/03 15:36:17;;;;;;;;;4.75;4.75;;;;;;;;5062756;28;45465;-75
2022/06/03 15:38:44;;;;;;;;;4.00;4.00;;;;;;;;5088309;27;45524;-74
2022/06/03 15:41:10;;;;;;;;;6.00;5.75;;;;;;;;5060686;28;45440;-74
2022/06/03 15:43:56;;;;;;;;;6.75;6.75;;;;;;;;5072892;28;46342;-75
2022/06/03 15:46:31;;;;;;;;;5.50;5.00;;;;;;;;5070957;28;45439;-74
2022/06/03 15:49:00;;;;;;;;;6.00;6.00;;;;;;;;5068272;27;45386;-74